sensor_id;sensor_type;location;lat;lon;timestamp;temperature;humidity
7028;DHT22;3555;53.248;10.336;2024-01-30T00:01:07;5.80;99.90
7028;DHT22;3555;53.248;10.336;2024-01-30T00:03:34;5.70;99.90
7028;DHT22;3555;53.248;10.336;2024-01-30T00:06:03;5.70;99.90
7028;DHT22;3555;53.248;10.336;2024-01-30T00:08:30;5.70;99.90
7028;DHT22;3555;53.248;10.336;2024-01-30T00:10:57;5.80;99.90
7028;DHT22;3555;53.248;10.336;2024-01-30T00:13:23;5.80;99.90
7028;DHT22;3555;53.248;10.336;2024-01-30T00:15:50;5.80;99.90
7028;DHT22;3555;53.248;10.336;2024-01-30T00:18:17;5.70;99.90
7028;DHT22;3555;53.248;10.336;2024-01-30T00:20:45;5.70;99.90
7028;DHT22;3555;53.248;10.336;2024-01-30T00:23:13;5.70;99.90
7028;DHT22;3555;53.248;10.336;2024-01-30T00:25:40;5.70;99.90
7028;DHT22;3555;53.248;10.336;2024-01-30T00:28:07;5.70;99.90
7028;DHT22;3555;53.248;10.336;2024-01-30T00:30:34;5.70;99.90
7028;DHT22;3555;53.248;10.336;2024-01-30T00:33:00;5.70;99.90
7028;DHT22;3555;53.248;10.336;2024-01-30T00:35:27;5.70;99.90
7028;DHT22;3555;53.248;10.336;2024-01-30T00:37:55;5.60;99.90
7028;DHT22;3555;53.248;10.336;2024-01-30T00:40:24;5.60;99.90
7028;DHT22;3555;53.248;10.336;2024-01-30T00:42:51;5.60;99.90
7028;DHT22;3555;53.248;10.336;2024-01-30T00:45:18;5.70;99.90
7028;DHT22;3555;53.248;10.336;2024-01-30T00:47:44;5.50;99.90
7028;DHT22;3555;53.248;10.336;2024-01-30T00:50:11;5.50;99.90
7028;DHT22;3555;53.248;10.336;2024-01-30T00:52:38;5.50;99.90
7028;DHT22;3555;53.248;10.336;2024-01-30T00:55:07;5.50;99.90
7028;DHT22;3555;53.248;10.336;2024-01-30T00:57:35;5.50;99.90
7028;DHT22;3555;53.248;10.336;2024-01-30T01:00:02;5.50;99.90
7028;DHT22;3555;53.248;10.336;2024-01-30T01:02:31;5.50;99.90
7028;DHT22;3555;53.248;10.336;2024-01-30T01:04:58;5.40;99.90
7028;DHT22;3555;53.248;10.336;2024-01-30T01:07:25;5.40;99.90
7028;DHT22;3555;53.248;10.336;2024-01-30T01:09:52;5.30;99.90
7028;DHT22;3555;53.248;10.336;2024-01-30T01:12:19;5.30;99.90
7028;DHT22;3555;53.248;10.336;2024-01-30T01:14:47;5.30;99.90
7028;DHT22;3555;53.248;10.336;2024-01-30T01:17:14;5.20;99.90
7028;DHT22;3555;53.248;10.336;2024-01-30T01:19:41;5.30;99.90
7028;DHT22;3555;53.248;10.336;2024-01-30T01:22:08;5.20;99.90
7028;DHT22;3555;53.248;10.336;2024-01-30T01:24:35;5.30;99.90
7028;DHT22;3555;53.248;10.336;2024-01-30T01:27:03;5.20;99.90
7028;DHT22;3555;53.248;10.336;2024-01-30T01:29:30;5.20;99.90
7028;DHT22;3555;53.248;10.336;2024-01-30T01:31:58;5.20;99.90
7028;DHT22;3555;53.248;10.336;2024-01-30T01:34:25;5.20;99.90
7028;DHT22;3555;53.248;10.336;2024-01-30T01:36:52;5.20;99.90
7028;DHT22;3555;53.248;10.336;2024-01-30T01:39:21;5.20;99.90
7028;DHT22;3555;53.248;10.336;2024-01-30T01:41:48;5.20;99.90
7028;DHT22;3555;53.248;10.336;2024-01-30T01:44:15;5.10;99.90
7028;DHT22;3555;53.248;10.336;2024-01-30T01:46:42;5.10;99.90
7028;DHT22;3555;53.248;10.336;2024-01-30T01:49:11;5.10;99.90
7028;DHT22;3555;53.248;10.336;2024-01-30T01:51:38;5.10;99.90
7028;DHT22;3555;53.248;10.336;2024-01-30T01:54:06;5.10;99.90
7028;DHT22;3555;53.248;10.336;2024-01-30T01:56:34;5.10;99.90
7028;DHT22;3555;53.248;10.336;2024-01-30T01:59:08;5.20;99.90
7028;DHT22;3555;53.248;10.336;2024-01-30T02:01:36;5.00;99.90
7028;DHT22;3555;53.248;10.336;2024-01-30T02:04:04;5.00;99.90
7028;DHT22;3555;53.248;10.336;2024-01-30T02:06:32;5.00;99.90
7028;DHT22;3555;53.248;10.336;2024-01-30T02:09:00;5.00;99.90
7028;DHT22;3555;53.248;10.336;2024-01-30T02:11:28;5.00;99.90
7028;DHT22;3555;53.248;10.336;2024-01-30T02:13:55;5.00;99.90
7028;DHT22;3555;53.248;10.336;2024-01-30T02:16:22;5.10;99.90
7028;DHT22;3555;53.248;10.336;2024-01-30T02:18:48;5.00;99.90
7028;DHT22;3555;53.248;10.336;2024-01-30T02:21:17;5.00;99.90
7028;DHT22;3555;53.248;10.336;2024-01-30T02:23:46;5.10;99.90
7028;DHT22;3555;53.248;10.336;2024-01-30T02:26:13;5.00;99.90
7028;DHT22;3555;53.248;10.336;2024-01-30T02:28:40;5.10;99.90
7028;DHT22;3555;53.248;10.336;2024-01-30T02:31:07;4.90;99.90
7028;DHT22;3555;53.248;10.336;2024-01-30T02:33:34;4.90;99.90
7028;DHT22;3555;53.248;10.336;2024-01-30T02:36:01;4.90;99.90
7028;DHT22;3555;53.248;10.336;2024-01-30T02:38:29;4.90;99.90
7028;DHT22;3555;53.248;10.336;2024-01-30T02:40:56;5.00;99.90
7028;DHT22;3555;53.248;10.336;2024-01-30T02:43:23;5.00;99.90
7028;DHT22;3555;53.248;10.336;2024-01-30T02:45:50;4.90;99.90
7028;DHT22;3555;53.248;10.336;2024-01-30T02:48:17;5.00;99.90
7028;DHT22;3555;53.248;10.336;2024-01-30T02:50:44;5.10;99.90
7028;DHT22;3555;53.248;10.336;2024-01-30T02:53:11;5.00;99.90
7028;DHT22;3555;53.248;10.336;2024-01-30T02:55:39;5.00;99.90
7028;DHT22;3555;53.248;10.336;2024-01-30T02:58:06;5.00;99.90
7028;DHT22;3555;53.248;10.336;2024-01-30T03:00:34;4.90;99.90
7028;DHT22;3555;53.248;10.336;2024-01-30T03:03:01;4.90;99.90
7028;DHT22;3555;53.248;10.336;2024-01-30T03:05:28;4.90;99.90
7028;DHT22;3555;53.248;10.336;2024-01-30T03:07:54;4.90;99.90
7028;DHT22;3555;53.248;10.336;2024-01-30T03:10:21;5.00;99.90
7028;DHT22;3555;53.248;10.336;2024-01-30T03:12:49;5.00;99.90
7028;DHT22;3555;53.248;10.336;2024-01-30T03:15:16;5.00;99.90
7028;DHT22;3555;53.248;10.336;2024-01-30T03:17:43;5.00;99.90
7028;DHT22;3555;53.248;10.336;2024-01-30T03:20:11;5.00;99.90
7028;DHT22;3555;53.248;10.336;2024-01-30T03:22:38;5.00;99.90
7028;DHT22;3555;53.248;10.336;2024-01-30T03:25:05;5.00;99.90
7028;DHT22;3555;53.248;10.336;2024-01-30T03:27:32;5.00;99.90
7028;DHT22;3555;53.248;10.336;2024-01-30T03:30:01;4.90;99.90
7028;DHT22;3555;53.248;10.336;2024-01-30T03:32:28;4.90;99.90
7028;DHT22;3555;53.248;10.336;2024-01-30T03:34:54;4.90;99.90
7028;DHT22;3555;53.248;10.336;2024-01-30T03:37:21;4.90;99.90
7028;DHT22;3555;53.248;10.336;2024-01-30T03:39:48;5.00;99.90
7028;DHT22;3555;53.248;10.336;2024-01-30T03:42:15;4.90;99.90
7028;DHT22;3555;53.248;10.336;2024-01-30T03:44:43;4.90;99.90
7028;DHT22;3555;53.248;10.336;2024-01-30T03:47:11;4.90;99.90
7028;DHT22;3555;53.248;10.336;2024-01-30T03:49:38;4.90;99.90
7028;DHT22;3555;53.248;10.336;2024-01-30T03:52:05;4.80;99.90
7028;DHT22;3555;53.248;10.336;2024-01-30T03:54:32;4.80;99.90
7028;DHT22;3555;53.248;10.336;2024-01-30T03:56:58;4.70;99.90
7028;DHT22;3555;53.248;10.336;2024-01-30T03:59:25;4.60;99.90
7028;DHT22;3555;53.248;10.336;2024-01-30T04:01:52;4.60;99.90
7028;DHT22;3555;53.248;10.336;2024-01-30T04:04:21;4.60;99.90
7028;DHT22;3555;53.248;10.336;2024-01-30T04:06:48;4.70;99.90
7028;DHT22;3555;53.248;10.336;2024-01-30T04:09:15;4.70;99.90
7028;DHT22;3555;53.248;10.336;2024-01-30T04:11:42;4.70;99.90
7028;DHT22;3555;53.248;10.336;2024-01-30T04:14:10;4.80;99.90
7028;DHT22;3555;53.248;10.336;2024-01-30T04:16:37;4.80;99.90
7028;DHT22;3555;53.248;10.336;2024-01-30T04:19:04;5.00;99.90
7028;DHT22;3555;53.248;10.336;2024-01-30T04:21:32;4.80;99.90
7028;DHT22;3555;53.248;10.336;2024-01-30T04:23:59;4.90;99.90
7028;DHT22;3555;53.248;10.336;2024-01-30T04:26:26;5.00;99.90
7028;DHT22;3555;53.248;10.336;2024-01-30T04:28:53;4.90;99.90
7028;DHT22;3555;53.248;10.336;2024-01-30T04:31:20;4.80;99.90
7028;DHT22;3555;53.248;10.336;2024-01-30T04:33:46;4.70;99.90
7028;DHT22;3555;53.248;10.336;2024-01-30T04:36:13;4.40;99.90
7028;DHT22;3555;53.248;10.336;2024-01-30T04:38:42;4.30;99.90
7028;DHT22;3555;53.248;10.336;2024-01-30T04:41:09;4.30;99.90
7028;DHT22;3555;53.248;10.336;2024-01-30T04:43:35;4.40;99.90
7028;DHT22;3555;53.248;10.336;2024-01-30T04:46:03;4.50;99.90
7028;DHT22;3555;53.248;10.336;2024-01-30T04:48:30;4.60;99.90
7028;DHT22;3555;53.248;10.336;2024-01-30T04:50:58;4.60;99.90
7028;DHT22;3555;53.248;10.336;2024-01-30T04:53:29;4.60;99.90
7028;DHT22;3555;53.248;10.336;2024-01-30T04:55:57;4.50;99.90
7028;DHT22;3555;53.248;10.336;2024-01-30T04:58:24;4.50;99.90
7028;DHT22;3555;53.248;10.336;2024-01-30T05:00:51;4.50;99.90
7028;DHT22;3555;53.248;10.336;2024-01-30T05:03:18;4.60;99.90
7028;DHT22;3555;53.248;10.336;2024-01-30T05:05:45;4.60;99.90
7028;DHT22;3555;53.248;10.336;2024-01-30T05:08:12;4.70;99.90
7028;DHT22;3555;53.248;10.336;2024-01-30T05:10:39;4.60;99.90
7028;DHT22;3555;53.248;10.336;2024-01-30T05:13:08;4.70;99.90
7028;DHT22;3555;53.248;10.336;2024-01-30T05:15:34;4.70;99.90
7028;DHT22;3555;53.248;10.336;2024-01-30T05:18:01;4.80;99.90
7028;DHT22;3555;53.248;10.336;2024-01-30T05:20:28;4.90;99.90
7028;DHT22;3555;53.248;10.336;2024-01-30T05:22:54;4.90;99.90
7028;DHT22;3555;53.248;10.336;2024-01-30T05:25:21;4.80;99.90
7028;DHT22;3555;53.248;10.336;2024-01-30T05:27:49;4.90;99.90
7028;DHT22;3555;53.248;10.336;2024-01-30T05:30:17;4.80;99.90
7028;DHT22;3555;53.248;10.336;2024-01-30T05:32:44;4.80;99.90
7028;DHT22;3555;53.248;10.336;2024-01-30T05:35:10;4.90;99.90
7028;DHT22;3555;53.248;10.336;2024-01-30T05:37:37;4.80;99.90
7028;DHT22;3555;53.248;10.336;2024-01-30T05:40:05;4.70;99.90
7028;DHT22;3555;53.248;10.336;2024-01-30T05:42:33;4.50;99.90
7028;DHT22;3555;53.248;10.336;2024-01-30T05:45:00;4.40;99.90
7028;DHT22;3555;53.248;10.336;2024-01-30T05:47:28;4.30;99.90
7028;DHT22;3555;53.248;10.336;2024-01-30T05:49:55;4.40;99.90
7028;DHT22;3555;53.248;10.336;2024-01-30T05:52:22;4.10;99.90
7028;DHT22;3555;53.248;10.336;2024-01-30T05:54:49;4.20;99.90
7028;DHT22;3555;53.248;10.336;2024-01-30T05:57:16;4.20;99.90
7028;DHT22;3555;53.248;10.336;2024-01-30T05:59:42;4.20;99.90
7028;DHT22;3555;53.248;10.336;2024-01-30T06:02:10;4.20;99.90
7028;DHT22;3555;53.248;10.336;2024-01-30T06:04:38;4.30;99.90
7028;DHT22;3555;53.248;10.336;2024-01-30T06:07:05;4.10;99.90
7028;DHT22;3555;53.248;10.336;2024-01-30T06:09:33;4.20;99.90
7028;DHT22;3555;53.248;10.336;2024-01-30T06:12:00;4.20;99.90
7028;DHT22;3555;53.248;10.336;2024-01-30T06:14:27;4.30;99.90
7028;DHT22;3555;53.248;10.336;2024-01-30T06:16:54;4.20;99.90
7028;DHT22;3555;53.248;10.336;2024-01-30T06:19:20;4.10;99.90
7028;DHT22;3555;53.248;10.336;2024-01-30T06:21:49;3.90;99.90
7028;DHT22;3555;53.248;10.336;2024-01-30T06:24:16;4.00;99.90
7028;DHT22;3555;53.248;10.336;2024-01-30T06:26:43;4.10;99.90
7028;DHT22;3555;53.248;10.336;2024-01-30T06:29:10;4.10;99.90
7028;DHT22;3555;53.248;10.336;2024-01-30T06:31:40;4.10;99.90
7028;DHT22;3555;53.248;10.336;2024-01-30T06:34:08;4.00;99.90
7028;DHT22;3555;53.248;10.336;2024-01-30T06:36:34;4.00;99.90
7028;DHT22;3555;53.248;10.336;2024-01-30T06:39:03;4.10;99.90
7028;DHT22;3555;53.248;10.336;2024-01-30T06:41:31;4.00;99.90
7028;DHT22;3555;53.248;10.336;2024-01-30T06:43:58;4.00;99.90
7028;DHT22;3555;53.248;10.336;2024-01-30T06:46:25;3.90;99.90
7028;DHT22;3555;53.248;10.336;2024-01-30T06:48:52;3.70;99.90
7028;DHT22;3555;53.248;10.336;2024-01-30T06:51:19;3.60;99.90
7028;DHT22;3555;53.248;10.336;2024-01-30T06:53:46;3.50;99.90
7028;DHT22;3555;53.248;10.336;2024-01-30T06:56:15;3.60;99.90
7028;DHT22;3555;53.248;10.336;2024-01-30T06:58:46;3.60;99.90
7028;DHT22;3555;53.248;10.336;2024-01-30T07:01:14;3.60;99.90
7028;DHT22;3555;53.248;10.336;2024-01-30T07:03:41;3.60;99.90
7028;DHT22;3555;53.248;10.336;2024-01-30T07:06:09;3.80;99.90
7028;DHT22;3555;53.248;10.336;2024-01-30T07:08:36;3.70;99.90
7028;DHT22;3555;53.248;10.336;2024-01-30T07:11:04;3.70;99.90
7028;DHT22;3555;53.248;10.336;2024-01-30T07:13:34;3.80;99.90
7028;DHT22;3555;53.248;10.336;2024-01-30T07:16:01;3.80;99.90
7028;DHT22;3555;53.248;10.336;2024-01-30T07:18:27;3.90;99.90
7028;DHT22;3555;53.248;10.336;2024-01-30T07:20:54;3.90;99.90
7028;DHT22;3555;53.248;10.336;2024-01-30T07:23:21;4.00;99.90
7028;DHT22;3555;53.248;10.336;2024-01-30T07:25:48;4.00;99.90
7028;DHT22;3555;53.248;10.336;2024-01-30T07:28:15;4.10;99.90
7028;DHT22;3555;53.248;10.336;2024-01-30T07:30:45;4.10;99.90
7028;DHT22;3555;53.248;10.336;2024-01-30T07:33:13;4.10;99.90
7028;DHT22;3555;53.248;10.336;2024-01-30T07:35:40;4.10;99.90
7028;DHT22;3555;53.248;10.336;2024-01-30T07:38:07;4.10;99.90
7028;DHT22;3555;53.248;10.336;2024-01-30T07:40:34;4.20;99.90
7028;DHT22;3555;53.248;10.336;2024-01-30T07:43:00;4.20;99.90
7028;DHT22;3555;53.248;10.336;2024-01-30T07:45:28;4.20;99.90
7028;DHT22;3555;53.248;10.336;2024-01-30T07:47:59;4.20;99.90
7028;DHT22;3555;53.248;10.336;2024-01-30T07:50:26;4.50;99.90
7028;DHT22;3555;53.248;10.336;2024-01-30T07:52:53;4.50;99.90
7028;DHT22;3555;53.248;10.336;2024-01-30T07:55:21;4.60;99.90
7028;DHT22;3555;53.248;10.336;2024-01-30T07:57:51;4.60;99.90
7028;DHT22;3555;53.248;10.336;2024-01-30T08:00:18;4.40;99.90
7028;DHT22;3555;53.248;10.336;2024-01-30T08:02:46;4.40;99.90
7028;DHT22;3555;53.248;10.336;2024-01-30T08:05:14;4.50;99.90
7028;DHT22;3555;53.248;10.336;2024-01-30T08:07:41;4.50;99.90
7028;DHT22;3555;53.248;10.336;2024-01-30T08:10:11;4.50;99.90
7028;DHT22;3555;53.248;10.336;2024-01-30T08:12:38;4.50;99.90
7028;DHT22;3555;53.248;10.336;2024-01-30T08:15:05;4.50;99.90
7028;DHT22;3555;53.248;10.336;2024-01-30T08:17:33;4.60;99.90
7028;DHT22;3555;53.248;10.336;2024-01-30T08:20:00;4.70;99.90
7028;DHT22;3555;53.248;10.336;2024-01-30T08:22:28;4.70;99.90
7028;DHT22;3555;53.248;10.336;2024-01-30T08:24:55;4.80;99.90
7028;DHT22;3555;53.248;10.336;2024-01-30T08:27:21;4.90;99.90
7028;DHT22;3555;53.248;10.336;2024-01-30T08:29:48;4.90;99.90
7028;DHT22;3555;53.248;10.336;2024-01-30T08:32:16;4.90;99.90
7028;DHT22;3555;53.248;10.336;2024-01-30T08:34:43;5.00;99.90
7028;DHT22;3555;53.248;10.336;2024-01-30T08:37:10;5.10;99.90
7028;DHT22;3555;53.248;10.336;2024-01-30T08:39:38;5.10;99.90
7028;DHT22;3555;53.248;10.336;2024-01-30T08:42:05;5.20;99.90
7028;DHT22;3555;53.248;10.336;2024-01-30T08:44:33;5.20;99.90
7028;DHT22;3555;53.248;10.336;2024-01-30T08:47:00;5.20;99.90
7028;DHT22;3555;53.248;10.336;2024-01-30T08:49:27;5.30;99.90
7028;DHT22;3555;53.248;10.336;2024-01-30T08:51:54;5.30;99.90
7028;DHT22;3555;53.248;10.336;2024-01-30T08:54:21;5.40;99.90
7028;DHT22;3555;53.248;10.336;2024-01-30T08:56:49;5.40;99.90
7028;DHT22;3555;53.248;10.336;2024-01-30T08:59:18;5.40;99.90
7028;DHT22;3555;53.248;10.336;2024-01-30T09:01:45;5.50;99.90
7028;DHT22;3555;53.248;10.336;2024-01-30T09:04:13;5.50;99.90
7028;DHT22;3555;53.248;10.336;2024-01-30T09:06:40;5.60;99.90
7028;DHT22;3555;53.248;10.336;2024-01-30T09:09:07;5.60;99.90
7028;DHT22;3555;53.248;10.336;2024-01-30T09:11:35;5.60;99.90
7028;DHT22;3555;53.248;10.336;2024-01-30T09:14:03;5.70;99.90
7028;DHT22;3555;53.248;10.336;2024-01-30T09:16:30;5.80;99.90
7028;DHT22;3555;53.248;10.336;2024-01-30T09:18:57;5.90;99.90
7028;DHT22;3555;53.248;10.336;2024-01-30T09:21:24;5.90;99.90
7028;DHT22;3555;53.248;10.336;2024-01-30T09:23:54;5.90;99.90
7028;DHT22;3555;53.248;10.336;2024-01-30T09:26:21;6.10;99.90
7028;DHT22;3555;53.248;10.336;2024-01-30T09:28:47;6.10;99.90
7028;DHT22;3555;53.248;10.336;2024-01-30T09:31:16;6.20;99.90
7028;DHT22;3555;53.248;10.336;2024-01-30T09:33:43;6.30;99.90
7028;DHT22;3555;53.248;10.336;2024-01-30T09:36:13;6.30;99.90
7028;DHT22;3555;53.248;10.336;2024-01-30T09:38:40;6.40;99.90
7028;DHT22;3555;53.248;10.336;2024-01-30T09:41:09;6.50;99.90
7028;DHT22;3555;53.248;10.336;2024-01-30T09:43:38;6.60;99.90
7028;DHT22;3555;53.248;10.336;2024-01-30T09:46:05;6.60;99.90
7028;DHT22;3555;53.248;10.336;2024-01-30T09:48:36;6.60;99.90
7028;DHT22;3555;53.248;10.336;2024-01-30T09:51:03;6.70;99.90
7028;DHT22;3555;53.248;10.336;2024-01-30T09:53:31;6.70;99.90
7028;DHT22;3555;53.248;10.336;2024-01-30T09:55:58;6.80;99.90
7028;DHT22;3555;53.248;10.336;2024-01-30T09:58:25;6.70;99.90
7028;DHT22;3555;53.248;10.336;2024-01-30T10:00:51;6.80;99.90
7028;DHT22;3555;53.248;10.336;2024-01-30T10:03:19;6.80;99.90
7028;DHT22;3555;53.248;10.336;2024-01-30T10:05:51;6.90;99.90
7028;DHT22;3555;53.248;10.336;2024-01-30T10:08:19;6.90;99.90
7028;DHT22;3555;53.248;10.336;2024-01-30T10:10:46;6.90;99.90
7028;DHT22;3555;53.248;10.336;2024-01-30T10:13:13;7.00;99.90
7028;DHT22;3555;53.248;10.336;2024-01-30T10:15:41;7.00;99.90
7028;DHT22;3555;53.248;10.336;2024-01-30T10:18:08;7.10;99.90
7028;DHT22;3555;53.248;10.336;2024-01-30T10:20:35;7.10;99.90
7028;DHT22;3555;53.248;10.336;2024-01-30T10:23:04;7.30;99.90
7028;DHT22;3555;53.248;10.336;2024-01-30T10:25:31;7.40;99.90
7028;DHT22;3555;53.248;10.336;2024-01-30T10:27:59;7.50;99.90
7028;DHT22;3555;53.248;10.336;2024-01-30T10:30:27;7.60;99.90
7028;DHT22;3555;53.248;10.336;2024-01-30T10:32:54;7.80;99.90
7028;DHT22;3555;53.248;10.336;2024-01-30T10:35:21;7.90;99.90
7028;DHT22;3555;53.248;10.336;2024-01-30T10:37:48;8.00;99.90
7028;DHT22;3555;53.248;10.336;2024-01-30T10:40:16;8.00;99.90
7028;DHT22;3555;53.248;10.336;2024-01-30T10:42:45;8.20;99.90
7028;DHT22;3555;53.248;10.336;2024-01-30T10:45:13;8.20;99.90
7028;DHT22;3555;53.248;10.336;2024-01-30T10:47:43;8.40;99.90
7028;DHT22;3555;53.248;10.336;2024-01-30T10:50:13;8.40;99.90
7028;DHT22;3555;53.248;10.336;2024-01-30T10:52:41;8.40;99.90
7028;DHT22;3555;53.248;10.336;2024-01-30T10:55:10;8.60;99.90
7028;DHT22;3555;53.248;10.336;2024-01-30T10:57:38;8.70;99.90
7028;DHT22;3555;53.248;10.336;2024-01-30T11:00:07;8.80;99.90
7028;DHT22;3555;53.248;10.336;2024-01-30T11:02:37;8.90;99.90
7028;DHT22;3555;53.248;10.336;2024-01-30T11:05:05;9.10;99.90
7028;DHT22;3555;53.248;10.336;2024-01-30T11:07:34;9.20;99.90
7028;DHT22;3555;53.248;10.336;2024-01-30T11:10:02;9.30;99.90
7028;DHT22;3555;53.248;10.336;2024-01-30T11:12:31;9.30;99.90
7028;DHT22;3555;53.248;10.336;2024-01-30T11:15:05;9.50;1.00
7028;DHT22;3555;53.248;10.336;2024-01-30T11:17:47;9.40;99.90
7028;DHT22;3555;53.248;10.336;2024-01-30T11:20:19;9.60;99.90
7028;DHT22;3555;53.248;10.336;2024-01-30T11:22:47;9.50;99.90
7028;DHT22;3555;53.248;10.336;2024-01-30T11:25:15;9.50;99.90
7028;DHT22;3555;53.248;10.336;2024-01-30T11:27:42;9.60;99.90
7028;DHT22;3555;53.248;10.336;2024-01-30T11:30:20;9.60;99.90
7028;DHT22;3555;53.248;10.336;2024-01-30T11:32:58;9.70;99.90
7028;DHT22;3555;53.248;10.336;2024-01-30T11:35:25;9.70;99.90
7028;DHT22;3555;53.248;10.336;2024-01-30T11:37:52;9.80;99.90
7028;DHT22;3555;53.248;10.336;2024-01-30T11:40:21;9.80;99.90
7028;DHT22;3555;53.248;10.336;2024-01-30T11:42:49;9.80;99.90
7028;DHT22;3555;53.248;10.336;2024-01-30T11:45:17;9.90;99.90
7028;DHT22;3555;53.248;10.336;2024-01-30T11:47:44;9.90;99.90
7028;DHT22;3555;53.248;10.336;2024-01-30T11:50:11;9.90;99.90
7028;DHT22;3555;53.248;10.336;2024-01-30T11:52:38;9.90;99.90
7028;DHT22;3555;53.248;10.336;2024-01-30T11:55:06;10.00;99.90
7028;DHT22;3555;53.248;10.336;2024-01-30T11:57:34;10.00;51.10
7028;DHT22;3555;53.248;10.336;2024-01-30T12:00:03;9.90;99.90
7028;DHT22;3555;53.248;10.336;2024-01-30T12:02:35;9.90;99.90
7028;DHT22;3555;53.248;10.336;2024-01-30T12:05:04;10.00;99.90
7028;DHT22;3555;53.248;10.336;2024-01-30T12:07:31;10.00;99.90
7028;DHT22;3555;53.248;10.336;2024-01-30T12:09:59;10.00;99.90
7028;DHT22;3555;53.248;10.336;2024-01-30T12:12:27;9.90;99.90
7028;DHT22;3555;53.248;10.336;2024-01-30T12:14:55;9.90;99.90
7028;DHT22;3555;53.248;10.336;2024-01-30T12:17:29;9.90;99.90
7028;DHT22;3555;53.248;10.336;2024-01-30T12:20:05;9.90;99.90
7028;DHT22;3555;53.248;10.336;2024-01-30T12:22:33;9.90;99.90
7028;DHT22;3555;53.248;10.336;2024-01-30T12:25:03;9.90;99.90
7028;DHT22;3555;53.248;10.336;2024-01-30T12:27:31;9.90;99.90
7028;DHT22;3555;53.248;10.336;2024-01-30T12:29:58;9.90;99.90
7028;DHT22;3555;53.248;10.336;2024-01-30T12:32:25;9.90;99.90
7028;DHT22;3555;53.248;10.336;2024-01-30T12:34:55;9.80;99.90
7028;DHT22;3555;53.248;10.336;2024-01-30T12:37:24;9.80;99.90
7028;DHT22;3555;53.248;10.336;2024-01-30T12:39:52;9.90;99.90
7028;DHT22;3555;53.248;10.336;2024-01-30T12:42:19;9.90;99.90
7028;DHT22;3555;53.248;10.336;2024-01-30T12:44:48;9.90;99.90
7028;DHT22;3555;53.248;10.336;2024-01-30T12:47:15;9.90;99.90
7028;DHT22;3555;53.248;10.336;2024-01-30T12:49:42;9.90;99.90
7028;DHT22;3555;53.248;10.336;2024-01-30T12:52:10;9.90;99.90
7028;DHT22;3555;53.248;10.336;2024-01-30T12:54:38;10.00;99.90
7028;DHT22;3555;53.248;10.336;2024-01-30T12:57:06;10.00;99.90
7028;DHT22;3555;53.248;10.336;2024-01-30T12:59:33;10.00;99.90
7028;DHT22;3555;53.248;10.336;2024-01-30T13:02:01;10.00;99.90
7028;DHT22;3555;53.248;10.336;2024-01-30T13:04:28;10.00;99.90
7028;DHT22;3555;53.248;10.336;2024-01-30T13:06:56;10.00;99.90
7028;DHT22;3555;53.248;10.336;2024-01-30T13:09:23;10.00;99.90
7028;DHT22;3555;53.248;10.336;2024-01-30T13:11:52;10.00;99.90
7028;DHT22;3555;53.248;10.336;2024-01-30T13:14:19;9.90;99.90
7028;DHT22;3555;53.248;10.336;2024-01-30T13:16:46;9.90;99.90
7028;DHT22;3555;53.248;10.336;2024-01-30T13:19:13;10.00;99.90
7028;DHT22;3555;53.248;10.336;2024-01-30T13:21:41;9.90;99.90
7028;DHT22;3555;53.248;10.336;2024-01-30T13:24:08;9.90;99.90
7028;DHT22;3555;53.248;10.336;2024-01-30T13:26:35;9.90;99.90
7028;DHT22;3555;53.248;10.336;2024-01-30T13:29:04;10.00;99.90
7028;DHT22;3555;53.248;10.336;2024-01-30T13:31:31;10.00;99.90
7028;DHT22;3555;53.248;10.336;2024-01-30T13:33:57;10.10;99.90
7028;DHT22;3555;53.248;10.336;2024-01-30T13:36:24;10.10;99.90
7028;DHT22;3555;53.248;10.336;2024-01-30T13:38:51;10.10;99.90
7028;DHT22;3555;53.248;10.336;2024-01-30T13:41:18;10.10;99.90
7028;DHT22;3555;53.248;10.336;2024-01-30T13:43:46;10.10;99.90
7028;DHT22;3555;53.248;10.336;2024-01-30T13:46:15;10.20;99.90
7028;DHT22;3555;53.248;10.336;2024-01-30T13:48:42;10.20;99.90
7028;DHT22;3555;53.248;10.336;2024-01-30T13:51:09;10.20;99.90
7028;DHT22;3555;53.248;10.336;2024-01-30T13:53:36;10.20;99.90
7028;DHT22;3555;53.248;10.336;2024-01-30T13:56:03;10.40;99.90
7028;DHT22;3555;53.248;10.336;2024-01-30T13:58:32;10.30;99.90
7028;DHT22;3555;53.248;10.336;2024-01-30T14:01:00;10.30;99.90
7028;DHT22;3555;53.248;10.336;2024-01-30T14:03:28;10.30;99.90
7028;DHT22;3555;53.248;10.336;2024-01-30T14:05:55;10.30;99.90
7028;DHT22;3555;53.248;10.336;2024-01-30T14:08:22;10.40;99.90
7028;DHT22;3555;53.248;10.336;2024-01-30T14:11:01;10.30;99.90
7028;DHT22;3555;53.248;10.336;2024-01-30T14:13:29;10.20;99.90
7028;DHT22;3555;53.248;10.336;2024-01-30T14:15:58;10.20;99.90
7028;DHT22;3555;53.248;10.336;2024-01-30T14:18:25;10.30;99.90
7028;DHT22;3555;53.248;10.336;2024-01-30T14:20:55;10.30;99.90
7028;DHT22;3555;53.248;10.336;2024-01-30T14:23:22;10.30;99.90
7028;DHT22;3555;53.248;10.336;2024-01-30T14:25:49;10.40;99.90
7028;DHT22;3555;53.248;10.336;2024-01-30T14:28:17;10.40;99.90
7028;DHT22;3555;53.248;10.336;2024-01-30T14:30:44;10.30;99.90
7028;DHT22;3555;53.248;10.336;2024-01-30T14:33:11;10.30;99.90
7028;DHT22;3555;53.248;10.336;2024-01-30T14:35:38;10.30;99.90
7028;DHT22;3555;53.248;10.336;2024-01-30T14:38:07;10.30;99.90
7028;DHT22;3555;53.248;10.336;2024-01-30T14:40:35;10.30;99.90
7028;DHT22;3555;53.248;10.336;2024-01-30T14:43:02;10.30;99.90
7028;DHT22;3555;53.248;10.336;2024-01-30T14:45:29;10.30;99.90
7028;DHT22;3555;53.248;10.336;2024-01-30T14:47:57;10.30;99.90
7028;DHT22;3555;53.248;10.336;2024-01-30T14:50:25;10.30;99.90
7028;DHT22;3555;53.248;10.336;2024-01-30T14:52:52;10.30;99.90
7028;DHT22;3555;53.248;10.336;2024-01-30T14:55:20;10.40;99.90
7028;DHT22;3555;53.248;10.336;2024-01-30T14:57:48;10.40;99.90
7028;DHT22;3555;53.248;10.336;2024-01-30T15:00:16;10.30;99.90
7028;DHT22;3555;53.248;10.336;2024-01-30T15:02:43;10.30;99.90
7028;DHT22;3555;53.248;10.336;2024-01-30T15:05:10;10.30;99.90
7028;DHT22;3555;53.248;10.336;2024-01-30T15:07:37;10.30;99.90
7028;DHT22;3555;53.248;10.336;2024-01-30T15:10:05;10.30;99.90
7028;DHT22;3555;53.248;10.336;2024-01-30T15:12:34;10.30;99.90
7028;DHT22;3555;53.248;10.336;2024-01-30T15:15:01;10.30;99.90
7028;DHT22;3555;53.248;10.336;2024-01-30T15:17:28;10.30;99.90
7028;DHT22;3555;53.248;10.336;2024-01-30T15:19:55;10.30;99.90
7028;DHT22;3555;53.248;10.336;2024-01-30T15:22:23;10.40;99.90
7028;DHT22;3555;53.248;10.336;2024-01-30T15:24:50;10.30;99.90
7028;DHT22;3555;53.248;10.336;2024-01-30T15:27:17;10.30;99.90
7028;DHT22;3555;53.248;10.336;2024-01-30T15:29:46;10.30;99.90
7028;DHT22;3555;53.248;10.336;2024-01-30T15:32:14;10.30;99.90
7028;DHT22;3555;53.248;10.336;2024-01-30T15:34:41;10.30;99.90
7028;DHT22;3555;53.248;10.336;2024-01-30T15:37:08;10.30;99.90
7028;DHT22;3555;53.248;10.336;2024-01-30T15:39:35;10.30;99.90
7028;DHT22;3555;53.248;10.336;2024-01-30T15:42:02;10.20;99.90
7028;DHT22;3555;53.248;10.336;2024-01-30T15:44:29;10.20;99.90
7028;DHT22;3555;53.248;10.336;2024-01-30T15:46:58;10.20;99.90
7028;DHT22;3555;53.248;10.336;2024-01-30T15:49:25;10.20;99.90
7028;DHT22;3555;53.248;10.336;2024-01-30T15:51:52;10.20;99.90
7028;DHT22;3555;53.248;10.336;2024-01-30T15:54:19;10.20;99.90
7028;DHT22;3555;53.248;10.336;2024-01-30T15:56:47;10.10;99.90
7028;DHT22;3555;53.248;10.336;2024-01-30T15:59:15;10.20;99.90
7028;DHT22;3555;53.248;10.336;2024-01-30T16:01:42;10.20;99.90